sensor_id;sensor_type;location;lat;lon;timestamp;P1;durP1;ratioP1;P2;durP2;ratioP2
51921;SDS011;37948;53.260;6.394;2022-09-21T00:00:47;5.30;;;2.45;;
51921;SDS011;37948;53.260;6.394;2022-09-21T00:03:13;7.05;;;2.72;;
51921;SDS011;37948;53.260;6.394;2022-09-21T00:05:39;3.95;;;2.22;;
51921;SDS011;37948;53.260;6.394;2022-09-21T00:08:05;3.08;;;2.20;;
51921;SDS011;37948;53.260;6.394;2022-09-21T00:10:31;5.07;;;2.20;;
51921;SDS011;37948;53.260;6.394;2022-09-21T00:12:58;4.07;;;2.15;;
51921;SDS011;37948;53.260;6.394;2022-09-21T00:15:27;3.67;;;2.28;;
51921;SDS011;37948;53.260;6.394;2022-09-21T00:17:53;4.28;;;2.50;;
51921;SDS011;37948;53.260;6.394;2022-09-21T00:20:20;3.78;;;2.13;;
51921;SDS011;37948;53.260;6.394;2022-09-21T00:22:47;4.47;;;2.70;;
51921;SDS011;37948;53.260;6.394;2022-09-21T00:25:13;4.45;;;2.15;;
51921;SDS011;37948;53.260;6.394;2022-09-21T00:27:39;3.00;;;2.00;;
51921;SDS011;37948;53.260;6.394;2022-09-21T00:30:05;2.53;;;2.10;;
51921;SDS011;37948;53.260;6.394;2022-09-21T00:32:32;2.40;;;2.20;;
51921;SDS011;37948;53.260;6.394;2022-09-21T00:35:00;2.60;;;2.35;;
51921;SDS011;37948;53.260;6.394;2022-09-21T00:37:27;4.45;;;2.13;;
51921;SDS011;37948;53.260;6.394;2022-09-21T00:39:53;5.15;;;2.35;;
51921;SDS011;37948;53.260;6.394;2022-09-21T00:42:20;4.00;;;2.35;;
51921;SDS011;37948;53.260;6.394;2022-09-21T00:44:54;3.58;;;2.30;;
51921;SDS011;37948;53.260;6.394;2022-09-21T00:47:21;5.75;;;2.90;;
51921;SDS011;37948;53.260;6.394;2022-09-21T00:49:49;5.07;;;2.50;;
51921;SDS011;37948;53.260;6.394;2022-09-21T00:52:18;3.92;;;2.20;;
51921;SDS011;37948;53.260;6.394;2022-09-21T00:54:46;5.20;;;2.15;;
51921;SDS011;37948;53.260;6.394;2022-09-21T00:57:16;2.83;;;1.63;;
51921;SDS011;37948;53.260;6.394;2022-09-21T00:59:44;4.43;;;1.90;;
51921;SDS011;37948;53.260;6.394;2022-09-21T01:02:10;3.00;;;2.08;;
51921;SDS011;37948;53.260;6.394;2022-09-21T01:04:37;2.65;;;1.98;;
51921;SDS011;37948;53.260;6.394;2022-09-21T01:07:04;6.45;;;2.35;;
51921;SDS011;37948;53.260;6.394;2022-09-21T01:09:38;5.88;;;2.42;;
51921;SDS011;37948;53.260;6.394;2022-09-21T01:12:16;9.23;;;2.58;;
51921;SDS011;37948;53.260;6.394;2022-09-21T01:23:34;4.75;;;2.63;;
51921;SDS011;37948;53.260;6.394;2022-09-21T01:37:01;9.07;;;2.65;;
51921;SDS011;37948;53.260;6.394;2022-09-21T01:39:31;5.68;;;2.85;;
51921;SDS011;37948;53.260;6.394;2022-09-21T01:41:59;4.65;;;2.58;;
51921;SDS011;37948;53.260;6.394;2022-09-21T01:44:28;5.18;;;2.65;;
51921;SDS011;37948;53.260;6.394;2022-09-21T01:46:57;5.82;;;2.40;;
51921;SDS011;37948;53.260;6.394;2022-09-21T01:49:28;9.70;;;2.80;;
51921;SDS011;37948;53.260;6.394;2022-09-21T01:52:04;6.00;;;2.60;;
51921;SDS011;37948;53.260;6.394;2022-09-21T01:54:48;5.28;;;2.45;;
51921;SDS011;37948;53.260;6.394;2022-09-21T01:57:30;3.78;;;2.67;;
51921;SDS011;37948;53.260;6.394;2022-09-21T02:00:04;4.85;;;3.00;;
51921;SDS011;37948;53.260;6.394;2022-09-21T02:02:35;9.77;;;3.13;;
51921;SDS011;37948;53.260;6.394;2022-09-21T02:05:06;6.07;;;3.25;;
51921;SDS011;37948;53.260;6.394;2022-09-21T02:07:33;9.77;;;2.90;;
51921;SDS011;37948;53.260;6.394;2022-09-21T02:10:00;3.58;;;2.67;;
51921;SDS011;37948;53.260;6.394;2022-09-21T02:12:27;6.35;;;2.95;;
51921;SDS011;37948;53.260;6.394;2022-09-21T02:14:53;5.63;;;2.95;;
51921;SDS011;37948;53.260;6.394;2022-09-21T02:28:47;4.47;;;2.72;;
51921;SDS011;37948;53.260;6.394;2022-09-21T02:34:33;5.35;;;2.50;;
51921;SDS011;37948;53.260;6.394;2022-09-21T02:39:37;6.53;;;2.83;;
51921;SDS011;37948;53.260;6.394;2022-09-21T02:42:16;3.40;;;2.63;;
51921;SDS011;37948;53.260;6.394;2022-09-21T02:44:54;3.78;;;2.90;;
51921;SDS011;37948;53.260;6.394;2022-09-21T02:47:42;8.43;;;3.33;;
51921;SDS011;37948;53.260;6.394;2022-09-21T02:50:38;4.10;;;2.85;;
51921;SDS011;37948;53.260;6.394;2022-09-21T02:53:08;6.97;;;2.90;;
51921;SDS011;37948;53.260;6.394;2022-09-21T02:55:37;3.97;;;2.70;;
51921;SDS011;37948;53.260;6.394;2022-09-21T02:58:04;3.67;;;2.60;;
51921;SDS011;37948;53.260;6.394;2022-09-21T03:00:35;4.28;;;2.95;;
51921;SDS011;37948;53.260;6.394;2022-09-21T03:03:12;3.92;;;2.97;;
51921;SDS011;37948;53.260;6.394;2022-09-21T03:05:43;3.78;;;2.65;;
51921;SDS011;37948;53.260;6.394;2022-09-21T03:08:10;2.92;;;2.63;;
51921;SDS011;37948;53.260;6.394;2022-09-21T03:10:36;3.08;;;2.55;;
51921;SDS011;37948;53.260;6.394;2022-09-21T03:13:03;3.38;;;2.65;;
51921;SDS011;37948;53.260;6.394;2022-09-21T03:15:29;8.98;;;2.70;;
51921;SDS011;37948;53.260;6.394;2022-09-21T03:17:55;7.30;;;2.95;;
51921;SDS011;37948;53.260;6.394;2022-09-21T03:20:21;7.15;;;3.40;;
51921;SDS011;37948;53.260;6.394;2022-09-21T03:22:46;3.35;;;2.63;;
51921;SDS011;37948;53.260;6.394;2022-09-21T03:25:12;9.98;;;2.85;;
51921;SDS011;37948;53.260;6.394;2022-09-21T03:27:38;6.75;;;2.80;;
51921;SDS011;37948;53.260;6.394;2022-09-21T03:30:05;2.55;;;2.28;;
51921;SDS011;37948;53.260;6.394;2022-09-21T03:32:31;4.18;;;2.55;;
51921;SDS011;37948;53.260;6.394;2022-09-21T03:34:56;2.80;;;2.45;;
51921;SDS011;37948;53.260;6.394;2022-09-21T03:37:22;6.30;;;2.50;;
51921;SDS011;37948;53.260;6.394;2022-09-21T03:39:47;3.10;;;2.50;;
51921;SDS011;37948;53.260;6.394;2022-09-21T03:42:13;2.75;;;2.03;;
51921;SDS011;37948;53.260;6.394;2022-09-21T03:44:39;4.82;;;2.45;;
51921;SDS011;37948;53.260;6.394;2022-09-21T03:47:05;4.22;;;2.47;;
51921;SDS011;37948;53.260;6.394;2022-09-21T03:49:31;5.22;;;2.58;;
51921;SDS011;37948;53.260;6.394;2022-09-21T03:51:58;3.72;;;2.47;;
51921;SDS011;37948;53.260;6.394;2022-09-21T03:54:24;4.18;;;2.45;;
51921;SDS011;37948;53.260;6.394;2022-09-21T03:56:50;2.22;;;2.10;;
51921;SDS011;37948;53.260;6.394;2022-09-21T03:59:15;4.32;;;2.45;;
51921;SDS011;37948;53.260;6.394;2022-09-21T04:01:41;3.75;;;2.10;;
51921;SDS011;37948;53.260;6.394;2022-09-21T04:04:07;3.60;;;2.35;;
51921;SDS011;37948;53.260;6.394;2022-09-21T04:06:33;2.45;;;2.13;;
51921;SDS011;37948;53.260;6.394;2022-09-21T04:08:58;6.70;;;2.20;;
51921;SDS011;37948;53.260;6.394;2022-09-21T04:11:26;2.30;;;2.10;;
51921;SDS011;37948;53.260;6.394;2022-09-21T04:13:52;2.63;;;2.30;;
51921;SDS011;37948;53.260;6.394;2022-09-21T04:16:21;3.67;;;2.10;;
51921;SDS011;37948;53.260;6.394;2022-09-21T04:18:48;2.85;;;2.55;;
51921;SDS011;37948;53.260;6.394;2022-09-21T04:21:15;1.88;;;1.75;;
51921;SDS011;37948;53.260;6.394;2022-09-21T04:23:41;4.28;;;2.47;;
51921;SDS011;37948;53.260;6.394;2022-09-21T04:26:17;2.47;;;1.98;;
51921;SDS011;37948;53.260;6.394;2022-09-21T04:28:54;3.13;;;2.00;;
51921;SDS011;37948;53.260;6.394;2022-09-21T04:31:20;7.70;;;2.25;;
51921;SDS011;37948;53.260;6.394;2022-09-21T04:33:48;3.78;;;2.10;;
51921;SDS011;37948;53.260;6.394;2022-09-21T04:36:18;3.13;;;1.90;;
51921;SDS011;37948;53.260;6.394;2022-09-21T04:38:45;3.20;;;1.92;;
51921;SDS011;37948;53.260;6.394;2022-09-21T04:41:11;7.53;;;2.25;;
51921;SDS011;37948;53.260;6.394;2022-09-21T04:43:37;2.67;;;1.95;;
51921;SDS011;37948;53.260;6.394;2022-09-21T04:46:06;2.65;;;1.98;;
51921;SDS011;37948;53.260;6.394;2022-09-21T04:48:33;3.15;;;2.08;;
51921;SDS011;37948;53.260;6.394;2022-09-21T04:50:59;3.17;;;1.80;;
51921;SDS011;37948;53.260;6.394;2022-09-21T04:53:25;1.85;;;1.73;;
51921;SDS011;37948;53.260;6.394;2022-09-21T04:55:51;5.40;;;2.63;;
51921;SDS011;37948;53.260;6.394;2022-09-21T04:58:16;3.72;;;1.70;;
51921;SDS011;37948;53.260;6.394;2022-09-21T05:00:42;3.33;;;1.65;;
51921;SDS011;37948;53.260;6.394;2022-09-21T05:03:08;4.55;;;1.90;;
51921;SDS011;37948;53.260;6.394;2022-09-21T05:05:33;2.55;;;2.35;;
51921;SDS011;37948;53.260;6.394;2022-09-21T05:07:59;1.92;;;1.75;;
51921;SDS011;37948;53.260;6.394;2022-09-21T05:10:24;2.10;;;1.90;;
51921;SDS011;37948;53.260;6.394;2022-09-21T05:12:50;3.25;;;2.15;;
51921;SDS011;37948;53.260;6.394;2022-09-21T05:15:16;2.72;;;2.10;;
51921;SDS011;37948;53.260;6.394;2022-09-21T05:17:42;2.67;;;2.40;;
51921;SDS011;37948;53.260;6.394;2022-09-21T05:20:08;3.05;;;2.00;;
51921;SDS011;37948;53.260;6.394;2022-09-21T05:22:35;2.00;;;1.80;;
51921;SDS011;37948;53.260;6.394;2022-09-21T05:25:01;4.82;;;2.22;;
51921;SDS011;37948;53.260;6.394;2022-09-21T05:27:27;3.35;;;2.13;;
51921;SDS011;37948;53.260;6.394;2022-09-21T05:29:52;2.78;;;2.20;;
51921;SDS011;37948;53.260;6.394;2022-09-21T05:32:27;2.50;;;2.30;;
51921;SDS011;37948;53.260;6.394;2022-09-21T05:40:30;4.35;;;2.10;;
51921;SDS011;37948;53.260;6.394;2022-09-21T05:42:56;6.30;;;3.28;;
51921;SDS011;37948;53.260;6.394;2022-09-21T05:45:22;7.82;;;4.22;;
51921;SDS011;37948;53.260;6.394;2022-09-21T05:48:03;10.65;;;5.97;;
51921;SDS011;37948;53.260;6.394;2022-09-21T05:56:01;11.90;;;7.25;;
51921;SDS011;37948;53.260;6.394;2022-09-21T05:58:55;23.83;;;7.43;;
51921;SDS011;37948;53.260;6.394;2022-09-21T06:01:38;15.35;;;8.30;;
51921;SDS011;37948;53.260;6.394;2022-09-21T06:04:10;12.10;;;7.40;;
51921;SDS011;37948;53.260;6.394;2022-09-21T06:06:37;11.85;;;6.57;;
51921;SDS011;37948;53.260;6.394;2022-09-21T06:09:03;8.75;;;7.07;;
51921;SDS011;37948;53.260;6.394;2022-09-21T06:11:29;12.77;;;7.65;;
51921;SDS011;37948;53.260;6.394;2022-09-21T06:13:55;12.23;;;7.50;;
51921;SDS011;37948;53.260;6.394;2022-09-21T06:16:21;11.32;;;7.00;;
51921;SDS011;37948;53.260;6.394;2022-09-21T06:18:46;14.00;;;7.35;;
51921;SDS011;37948;53.260;6.394;2022-09-21T06:21:12;13.63;;;7.80;;
51921;SDS011;37948;53.260;6.394;2022-09-21T06:23:37;8.73;;;5.80;;
51921;SDS011;37948;53.260;6.394;2022-09-21T06:26:03;8.57;;;6.38;;
51921;SDS011;37948;53.260;6.394;2022-09-21T06:28:29;8.20;;;5.65;;
51921;SDS011;37948;53.260;6.394;2022-09-21T06:30:55;10.77;;;5.60;;
51921;SDS011;37948;53.260;6.394;2022-09-21T06:33:22;7.72;;;5.13;;
51921;SDS011;37948;53.260;6.394;2022-09-21T06:35:58;7.45;;;5.22;;
51921;SDS011;37948;53.260;6.394;2022-09-21T06:38:24;9.48;;;5.53;;
51921;SDS011;37948;53.260;6.394;2022-09-21T06:40:51;6.18;;;4.63;;
51921;SDS011;37948;53.260;6.394;2022-09-21T06:43:18;6.07;;;5.00;;
51921;SDS011;37948;53.260;6.394;2022-09-21T06:45:51;7.90;;;4.47;;
51921;SDS011;37948;53.260;6.394;2022-09-21T06:48:20;9.60;;;4.70;;
51921;SDS011;37948;53.260;6.394;2022-09-21T06:50:46;6.45;;;4.10;;
51921;SDS011;37948;53.260;6.394;2022-09-21T06:53:12;7.35;;;4.60;;
51921;SDS011;37948;53.260;6.394;2022-09-21T06:55:38;10.45;;;4.75;;
51921;SDS011;37948;53.260;6.394;2022-09-21T06:58:05;5.40;;;3.63;;
51921;SDS011;37948;53.260;6.394;2022-09-21T07:00:31;8.10;;;3.38;;
51921;SDS011;37948;53.260;6.394;2022-09-21T07:02:57;5.28;;;3.35;;
51921;SDS011;37948;53.260;6.394;2022-09-21T07:05:23;6.70;;;3.30;;
51921;SDS011;37948;53.260;6.394;2022-09-21T07:07:49;8.43;;;2.90;;
51921;SDS011;37948;53.260;6.394;2022-09-21T07:10:15;3.38;;;3.10;;
51921;SDS011;37948;53.260;6.394;2022-09-21T07:12:41;5.57;;;3.10;;
51921;SDS011;37948;53.260;6.394;2022-09-21T07:15:08;6.18;;;2.72;;
51921;SDS011;37948;53.260;6.394;2022-09-21T07:17:35;3.65;;;2.90;;
51921;SDS011;37948;53.260;6.394;2022-09-21T07:20:03;7.82;;;2.97;;
51921;SDS011;37948;53.260;6.394;2022-09-21T07:22:30;5.78;;;2.70;;
51921;SDS011;37948;53.260;6.394;2022-09-21T07:24:56;13.80;;;3.13;;
51921;SDS011;37948;53.260;6.394;2022-09-21T07:27:22;8.85;;;3.42;;
51921;SDS011;37948;53.260;6.394;2022-09-21T07:29:49;4.80;;;2.75;;
51921;SDS011;37948;53.260;6.394;2022-09-21T07:32:15;7.07;;;4.22;;
51921;SDS011;37948;53.260;6.394;2022-09-21T07:34:41;10.63;;;3.63;;
51921;SDS011;37948;53.260;6.394;2022-09-21T07:37:06;9.27;;;3.35;;
51921;SDS011;37948;53.260;6.394;2022-09-21T07:39:32;6.25;;;2.92;;
51921;SDS011;37948;53.260;6.394;2022-09-21T07:41:57;6.68;;;3.22;;
51921;SDS011;37948;53.260;6.394;2022-09-21T07:44:23;6.47;;;2.70;;
51921;SDS011;37948;53.260;6.394;2022-09-21T07:46:49;8.68;;;3.25;;
51921;SDS011;37948;53.260;6.394;2022-09-21T07:49:15;8.93;;;3.20;;
51921;SDS011;37948;53.260;6.394;2022-09-21T07:51:40;5.03;;;2.92;;
51921;SDS011;37948;53.260;6.394;2022-09-21T07:54:07;9.60;;;3.03;;
51921;SDS011;37948;53.260;6.394;2022-09-21T07:56:35;13.02;;;3.42;;
51921;SDS011;37948;53.260;6.394;2022-09-21T07:59:01;6.75;;;3.00;;
51921;SDS011;37948;53.260;6.394;2022-09-21T08:01:34;7.80;;;2.47;;
51921;SDS011;37948;53.260;6.394;2022-09-21T08:04:05;6.30;;;2.70;;
51921;SDS011;37948;53.260;6.394;2022-09-21T08:06:32;7.03;;;2.85;;
51921;SDS011;37948;53.260;6.394;2022-09-21T08:09:00;12.63;;;3.42;;
51921;SDS011;37948;53.260;6.394;2022-09-21T08:11:27;3.53;;;2.60;;
51921;SDS011;37948;53.260;6.394;2022-09-21T08:13:55;5.40;;;2.70;;
51921;SDS011;37948;53.260;6.394;2022-09-21T08:16:23;6.03;;;2.20;;
51921;SDS011;37948;53.260;6.394;2022-09-21T08:18:49;5.88;;;2.78;;
51921;SDS011;37948;53.260;6.394;2022-09-21T08:21:15;9.35;;;2.40;;
51921;SDS011;37948;53.260;6.394;2022-09-21T08:23:41;11.32;;;2.67;;
51921;SDS011;37948;53.260;6.394;2022-09-21T08:26:09;7.28;;;2.13;;
51921;SDS011;37948;53.260;6.394;2022-09-21T08:28:40;7.68;;;2.10;;
51921;SDS011;37948;53.260;6.394;2022-09-21T08:31:06;7.20;;;2.13;;
51921;SDS011;37948;53.260;6.394;2022-09-21T08:33:33;7.82;;;1.98;;
51921;SDS011;37948;53.260;6.394;2022-09-21T08:35:59;13.38;;;1.90;;
51921;SDS011;37948;53.260;6.394;2022-09-21T08:38:25;10.18;;;1.42;;
51921;SDS011;37948;53.260;6.394;2022-09-21T08:40:56;8.50;;;2.00;;
51921;SDS011;37948;53.260;6.394;2022-09-21T08:43:30;8.90;;;1.73;;
51921;SDS011;37948;53.260;6.394;2022-09-21T08:46:06;10.25;;;1.90;;
51921;SDS011;37948;53.260;6.394;2022-09-21T08:48:54;4.28;;;1.20;;
51921;SDS011;37948;53.260;6.394;2022-09-21T08:51:21;6.20;;;0.98;;
51921;SDS011;37948;53.260;6.394;2022-09-21T08:53:51;9.00;;;1.15;;
51921;SDS011;37948;53.260;6.394;2022-09-21T08:56:21;5.53;;;1.10;;
51921;SDS011;37948;53.260;6.394;2022-09-21T08:58:48;9.82;;;1.83;;
51921;SDS011;37948;53.260;6.394;2022-09-21T09:17:34;3.78;;;0.90;;
51921;SDS011;37948;53.260;6.394;2022-09-21T09:20:36;5.03;;;1.13;;
51921;SDS011;37948;53.260;6.394;2022-09-21T09:26:02;6.05;;;0.82;;
51921;SDS011;37948;53.260;6.394;2022-09-21T09:28:42;3.03;;;0.90;;
51921;SDS011;37948;53.260;6.394;2022-09-21T09:36:10;2.50;;;0.77;;
51921;SDS011;37948;53.260;6.394;2022-09-21T09:41:36;8.43;;;1.33;;
51921;SDS011;37948;53.260;6.394;2022-09-21T09:44:10;5.07;;;0.77;;
51921;SDS011;37948;53.260;6.394;2022-09-21T09:52:12;5.78;;;1.83;;
51921;SDS011;37948;53.260;6.394;2022-09-21T09:54:40;5.40;;;1.05;;
51921;SDS011;37948;53.260;6.394;2022-09-21T09:57:06;4.22;;;1.17;;
51921;SDS011;37948;53.260;6.394;2022-09-21T09:59:36;2.50;;;0.90;;
51921;SDS011;37948;53.260;6.394;2022-09-21T10:04:52;6.22;;;1.15;;
51921;SDS011;37948;53.260;6.394;2022-09-21T10:15:50;5.03;;;0.82;;
51921;SDS011;37948;53.260;6.394;2022-09-21T10:21:22;4.05;;;0.93;;
51921;SDS011;37948;53.260;6.394;2022-09-21T10:23:49;2.65;;;0.47;;
51921;SDS011;37948;53.260;6.394;2022-09-21T10:29:18;12.23;;;1.65;;
51921;SDS011;37948;53.260;6.394;2022-09-21T10:34:23;2.50;;;0.85;;
51921;SDS011;37948;53.260;6.394;2022-09-21T10:36:52;4.78;;;0.77;;
51921;SDS011;37948;53.260;6.394;2022-09-21T10:41:55;4.93;;;0.80;;
51921;SDS011;37948;53.260;6.394;2022-09-21T10:44:40;6.95;;;1.10;;
51921;SDS011;37948;53.260;6.394;2022-09-21T10:47:14;2.35;;;0.38;;
51921;SDS011;37948;53.260;6.394;2022-09-21T10:49:46;4.63;;;0.70;;
51921;SDS011;37948;53.260;6.394;2022-09-21T10:52:21;5.18;;;0.60;;
51921;SDS011;37948;53.260;6.394;2022-09-21T10:54:50;4.03;;;0.93;;
51921;SDS011;37948;53.260;6.394;2022-09-21T10:57:19;2.90;;;0.60;;
51921;SDS011;37948;53.260;6.394;2022-09-21T10:59:47;4.82;;;0.80;;
51921;SDS011;37948;53.260;6.394;2022-09-21T11:02:23;7.78;;;0.80;;
51921;SDS011;37948;53.260;6.394;2022-09-21T11:05:05;4.03;;;0.70;;
51921;SDS011;37948;53.260;6.394;2022-09-21T11:07:40;6.25;;;0.85;;
51921;SDS011;37948;53.260;6.394;2022-09-21T11:10:19;7.78;;;0.80;;
51921;SDS011;37948;53.260;6.394;2022-09-21T11:12:56;2.47;;;0.40;;
51921;SDS011;37948;53.260;6.394;2022-09-21T11:15:40;3.67;;;0.50;;
51921;SDS011;37948;53.260;6.394;2022-09-21T11:18:22;1.95;;;0.50;;
51921;SDS011;37948;53.260;6.394;2022-09-21T11:20:54;3.10;;;0.50;;
51921;SDS011;37948;53.260;6.394;2022-09-21T11:29:14;3.85;;;0.63;;
51921;SDS011;37948;53.260;6.394;2022-09-21T11:32:10;7.03;;;0.93;;
51921;SDS011;37948;53.260;6.394;2022-09-21T11:46:45;3.60;;;1.20;;
51921;SDS011;37948;53.260;6.394;2022-09-21T12:14:32;2.15;;;0.30;;
51921;SDS011;37948;53.260;6.394;2022-09-21T12:20:23;4.72;;;0.50;;
51921;SDS011;37948;53.260;6.394;2022-09-21T12:22:52;3.33;;;0.98;;
51921;SDS011;37948;53.260;6.394;2022-09-21T12:25:42;1.95;;;0.63;;
51921;SDS011;37948;53.260;6.394;2022-09-21T12:31:10;1.88;;;0.40;;
51921;SDS011;37948;53.260;6.394;2022-09-21T12:37:05;2.60;;;0.80;;
51921;SDS011;37948;53.260;6.394;2022-09-21T12:39:25;4.00;;;0.50;;
51921;SDS011;37948;53.260;6.394;2022-09-21T12:45:02;2.45;;;0.68;;
51921;SDS011;37948;53.260;6.394;2022-09-21T12:47:51;4.43;;;0.80;;
51921;SDS011;37948;53.260;6.394;2022-09-21T12:50:26;3.60;;;0.45;;
51921;SDS011;37948;53.260;6.394;2022-09-21T12:53:03;2.97;;;0.60;;
51921;SDS011;37948;53.260;6.394;2022-09-21T13:01:13;4.68;;;0.50;;
51921;SDS011;37948;53.260;6.394;2022-09-21T13:09:21;3.58;;;1.10;;
51921;SDS011;37948;53.260;6.394;2022-09-21T13:11:49;3.25;;;0.82;;
51921;SDS011;37948;53.260;6.394;2022-09-21T13:14:18;5.72;;;0.77;;
51921;SDS011;37948;53.260;6.394;2022-09-21T13:16:44;4.68;;;0.60;;
51921;SDS011;37948;53.260;6.394;2022-09-21T13:19:23;3.10;;;0.93;;
51921;SDS011;37948;53.260;6.394;2022-09-21T13:22:50;3.67;;;0.60;;
51921;SDS011;37948;53.260;6.394;2022-09-21T13:24:58;5.53;;;0.75;;
51921;SDS011;37948;53.260;6.394;2022-09-21T13:30:44;6.13;;;1.52;;
51921;SDS011;37948;53.260;6.394;2022-09-21T13:43:47;5.93;;;0.70;;
51921;SDS011;37948;53.260;6.394;2022-09-21T13:49:12;3.15;;;0.80;;
51921;SDS011;37948;53.260;6.394;2022-09-21T13:54:28;5.22;;;0.63;;
51921;SDS011;37948;53.260;6.394;2022-09-21T13:57:05;1.38;;;0.47;;
51921;SDS011;37948;53.260;6.394;2022-09-21T13:59:43;3.47;;;0.65;;
51921;SDS011;37948;53.260;6.394;2022-09-21T14:02:20;2.90;;;0.43;;
51921;SDS011;37948;53.260;6.394;2022-09-21T14:04:49;2.33;;;0.38;;
51921;SDS011;37948;53.260;6.394;2022-09-21T14:07:16;2.83;;;0.50;;
51921;SDS011;37948;53.260;6.394;2022-09-21T14:09:52;5.50;;;0.60;;
51921;SDS011;37948;53.260;6.394;2022-09-21T14:12:24;3.03;;;0.65;;
51921;SDS011;37948;53.260;6.394;2022-09-21T14:15:07;2.33;;;0.50;;
51921;SDS011;37948;53.260;6.394;2022-09-21T14:17:35;3.22;;;0.30;;
51921;SDS011;37948;53.260;6.394;2022-09-21T14:20:03;2.33;;;0.70;;
51921;SDS011;37948;53.260;6.394;2022-09-21T14:22:48;6.10;;;1.08;;
51921;SDS011;37948;53.260;6.394;2022-09-21T14:28:51;2.97;;;0.68;;
51921;SDS011;37948;53.260;6.394;2022-09-21T14:31:19;6.05;;;1.02;;
51921;SDS011;37948;53.260;6.394;2022-09-21T14:33:55;3.42;;;0.68;;
51921;SDS011;37948;53.260;6.394;2022-09-21T14:36:25;3.28;;;0.80;;
51921;SDS011;37948;53.260;6.394;2022-09-21T14:39:02;5.95;;;1.08;;
51921;SDS011;37948;53.260;6.394;2022-09-21T14:41:39;3.67;;;0.70;;
51921;SDS011;37948;53.260;6.394;2022-09-21T14:44:06;4.28;;;0.95;;
51921;SDS011;37948;53.260;6.394;2022-09-21T14:55:31;12.13;;;1.83;;
51921;SDS011;37948;53.260;6.394;2022-09-21T15:01:33;3.45;;;0.85;;
51921;SDS011;37948;53.260;6.394;2022-09-21T15:07:00;4.53;;;0.65;;
51921;SDS011;37948;53.260;6.394;2022-09-21T15:18:11;2.03;;;0.73;;
51921;SDS011;37948;53.260;6.394;2022-09-21T15:20:44;6.93;;;0.73;;
51921;SDS011;37948;53.260;6.394;2022-09-21T15:23:26;2.90;;;0.93;;
51921;SDS011;37948;53.260;6.394;2022-09-21T15:25:55;2.10;;;0.50;;
51921;SDS011;37948;53.260;6.394;2022-09-21T15:28:27;8.35;;;1.23;;
51921;SDS011;37948;53.260;6.394;2022-09-21T15:31:02;5.03;;;0.68;;
51921;SDS011;37948;53.260;6.394;2022-09-21T15:33:30;4.47;;;0.73;;
51921;SDS011;37948;53.260;6.394;2022-09-21T15:35:58;3.10;;;0.70;;
51921;SDS011;37948;53.260;6.394;2022-09-21T15:38:26;4.40;;;0.98;;
51921;SDS011;37948;53.260;6.394;2022-09-21T15:40:53;3.67;;;0.90;;
51921;SDS011;37948;53.260;6.394;2022-09-21T15:43:19;3.72;;;0.57;;
51921;SDS011;37948;53.260;6.394;2022-09-21T15:45:58;5.38;;;1.02;;
51921;SDS011;37948;53.260;6.394;2022-09-21T15:48:25;5.85;;;1.05;;
51921;SDS011;37948;53.260;6.394;2022-09-21T15:53:47;8.07;;;1.52;;
51921;SDS011;37948;53.260;6.394;2022-09-21T15:56:21;4.13;;;1.10;;
51921;SDS011;37948;53.260;6.394;2022-09-21T15:58:50;3.80;;;1.42;;
51921;SDS011;37948;53.260;6.394;2022-09-21T16:01:22;4.65;;;1.80;;
51921;SDS011;37948;53.260;6.394;2022-09-21T16:03:47;4.30;;;1.17;;
51921;SDS011;37948;53.260;6.394;2022-09-21T16:06:28;6.57;;;1.27;;
51921;SDS011;37948;53.260;6.394;2022-09-21T16:09:26;7.95;;;1.38;;
51921;SDS011;37948;53.260;6.394;2022-09-21T16:11:50;6.78;;;1.20;;
51921;SDS011;37948;53.260;6.394;2022-09-21T16:14:17;2.70;;;0.80;;
51921;SDS011;37948;53.260;6.394;2022-09-21T16:22:07;5.45;;;1.05;;
51921;SDS011;37948;53.260;6.394;2022-09-21T16:24:42;7.43;;;1.08;;
51921;SDS011;37948;53.260;6.394;2022-09-21T16:29:40;3.33;;;0.75;;
51921;SDS011;37948;53.260;6.394;2022-09-21T16:32:18;4.15;;;1.00;;
51921;SDS011;37948;53.260;6.394;2022-09-21T16:34:47;5.68;;;1.05;;
51921;SDS011;37948;53.260;6.394;2022-09-21T16:39:52;7.47;;;0.68;;
51921;SDS011;37948;53.260;6.394;2022-09-21T16:42:22;3.63;;;0.73;;
51921;SDS011;37948;53.260;6.394;2022-09-21T16:44:56;2.53;;;0.75;;
51921;SDS011;37948;53.260;6.394;2022-09-21T16:47:24;9.55;;;1.38;;
51921;SDS011;37948;53.260;6.394;2022-09-21T16:49:51;3.97;;;0.90;;
51921;SDS011;37948;53.260;6.394;2022-09-21T16:52:24;2.88;;;0.73;;
51921;SDS011;37948;53.260;6.394;2022-09-21T16:54:52;4.25;;;1.02;;
51921;SDS011;37948;53.260;6.394;2022-09-21T16:57:18;3.67;;;1.00;;
51921;SDS011;37948;53.260;6.394;2022-09-21T16:59:45;5.57;;;1.08;;
51921;SDS011;37948;53.260;6.394;2022-09-21T17:02:11;6.10;;;1.00;;
51921;SDS011;37948;53.260;6.394;2022-09-21T17:04:38;4.13;;;0.70;;
51921;SDS011;37948;53.260;6.394;2022-09-21T17:07:04;5.97;;;0.88;;
51921;SDS011;37948;53.260;6.394;2022-09-21T17:09:37;4.93;;;0.90;;
51921;SDS011;37948;53.260;6.394;2022-09-21T17:12:08;5.60;;;1.48;;
51921;SDS011;37948;53.260;6.394;2022-09-21T17:14:38;7.85;;;1.55;;
51921;SDS011;37948;53.260;6.394;2022-09-21T17:17:12;7.22;;;1.20;;
51921;SDS011;37948;53.260;6.394;2022-09-21T17:19:37;6.22;;;0.50;;
51921;SDS011;37948;53.260;6.394;2022-09-21T17:22:06;5.82;;;1.10;;
51921;SDS011;37948;53.260;6.394;2022-09-21T17:24:41;4.45;;;0.90;;
51921;SDS011;37948;53.260;6.394;2022-09-21T17:27:09;8.05;;;1.50;;
51921;SDS011;37948;53.260;6.394;2022-09-21T17:29:36;4.68;;;1.08;;
51921;SDS011;37948;53.260;6.394;2022-09-21T17:32:07;2.67;;;0.80;;
51921;SDS011;37948;53.260;6.394;2022-09-21T17:34:34;3.85;;;0.70;;
51921;SDS011;37948;53.260;6.394;2022-09-21T17:37:00;4.15;;;0.98;;
51921;SDS011;37948;53.260;6.394;2022-09-21T17:39:26;3.75;;;0.95;;
51921;SDS011;37948;53.260;6.394;2022-09-21T17:41:55;3.05;;;0.98;;
51921;SDS011;37948;53.260;6.394;2022-09-21T17:46:53;3.10;;;1.45;;
51921;SDS011;37948;53.260;6.394;2022-09-21T17:49:25;5.25;;;1.27;;
51921;SDS011;37948;53.260;6.394;2022-09-21T17:51:50;4.28;;;1.55;;
51921;SDS011;37948;53.260;6.394;2022-09-21T17:54:34;8.13;;;1.60;;
51921;SDS011;37948;53.260;6.394;2022-09-21T17:59:33;7.80;;;1.73;;
51921;SDS011;37948;53.260;6.394;2022-09-21T18:02:01;5.70;;;2.13;;
51921;SDS011;37948;53.260;6.394;2022-09-21T18:04:35;5.50;;;1.38;;
51921;SDS011;37948;53.260;6.394;2022-09-21T18:07:02;4.85;;;1.20;;
51921;SDS011;37948;53.260;6.394;2022-09-21T18:09:27;5.38;;;1.63;;
51921;SDS011;37948;53.260;6.394;2022-09-21T18:17:37;3.88;;;1.27;;
51921;SDS011;37948;53.260;6.394;2022-09-21T18:20:40;3.50;;;1.33;;
51921;SDS011;37948;53.260;6.394;2022-09-21T18:23:24;3.55;;;1.73;;
51921;SDS011;37948;53.260;6.394;2022-09-21T18:26:09;10.40;;;2.40;;
51921;SDS011;37948;53.260;6.394;2022-09-21T18:31:26;5.40;;;1.70;;
51921;SDS011;37948;53.260;6.394;2022-09-21T18:37:24;5.10;;;1.75;;
51921;SDS011;37948;53.260;6.394;2022-09-21T18:40:02;4.60;;;2.28;;
51921;SDS011;37948;53.260;6.394;2022-09-21T18:51:36;3.33;;;2.25;;
51921;SDS011;37948;53.260;6.394;2022-09-21T18:54:17;9.77;;;3.97;;
51921;SDS011;37948;53.260;6.394;2022-09-21T18:56:44;8.40;;;3.63;;
51921;SDS011;37948;53.260;6.394;2022-09-21T18:59:11;7.13;;;3.33;;
51921;SDS011;37948;53.260;6.394;2022-09-21T19:01:38;5.05;;;3.47;;
51921;SDS011;37948;53.260;6.394;2022-09-21T19:04:06;6.32;;;4.20;;
51921;SDS011;37948;53.260;6.394;2022-09-21T19:09:12;4.30;;;3.40;;
51921;SDS011;37948;53.260;6.394;2022-09-21T19:11:56;9.25;;;4.68;;
51921;SDS011;37948;53.260;6.394;2022-09-21T19:15:00;5.70;;;4.00;;
51921;SDS011;37948;53.260;6.394;2022-09-21T19:17:24;7.93;;;3.50;;
51921;SDS011;37948;53.260;6.394;2022-09-21T19:20:12;7.55;;;3.22;;
51921;SDS011;37948;53.260;6.394;2022-09-21T19:23:04;5.70;;;2.95;;
51921;SDS011;37948;53.260;6.394;2022-09-21T19:25:47;6.03;;;2.50;;